Time;durP1;ratioP1;P1;durP2;ratioP2;P2;SDS_P1;SDS_P2;PMS_P1;PMS_P2;Temp;Humidity;BMP_temperature;BMP_pressure;BME280_temperature;BME280_humidity;BME280_pressure;Samples;Min_cycle;Max_cycle;Signal;HPM_P1;HPM_P2
2023/03/09 00:00:35;;;;;;;;;;;;;;;;;;5033631;28;1987;-46
2023/03/09 00:03:03;;;;;;;;;;;;;;;;;;5032968;28;1846;-43
2023/03/09 00:05:30;;;;;;;;;;;;;;;;;;5033611;28;1660;-44
2023/03/09 00:07:57;;;;;;;;;;;;;;;;;;5033777;28;2192;-48
2023/03/09 00:10:24;;;;;;;;;;;;;;;;;;5053126;28;2056;-44
2023/03/09 00:12:51;;;;;;;;;;;;;;;;;;5053084;28;1976;-46
2023/03/09 00:15:18;;;;;;;;;;;;;;;;;;5052946;28;1977;-45
2023/03/09 00:17:46;;;;;;;;;;;;;;;;;;5053052;28;2020;-44
2023/03/09 00:20:19;;;;;;;;;;;;;;;;;;5052929;28;1994;-43
2023/03/09 00:22:48;;;;;;;;;;;;;;;;;;5052846;28;2200;-42
2023/03/09 00:25:15;;;;;;;;;;;;;;;;;;5052822;28;2172;-47
2023/03/09 00:27:45;;;;;;;;;;;;;;;;;;5052782;28;1990;-44
2023/03/09 00:30:13;;;;;;;;;;;;;;;;;;5052678;28;2291;-47
2023/03/09 00:32:40;;;;;;;;;;;;;;;;;;5052649;28;2145;-46
2023/03/09 00:35:08;;;;;;;;;;;;;;;;;;5052550;28;1950;-43
2023/03/09 00:37:37;;;;;;;;;;;;;;;;;;5035084;28;2139;-44
2023/03/09 00:40:06;;;;;;;;;;;;;;;;;;5052759;28;1962;-42
2023/03/09 00:42:34;;;;;;;;;;;;;;;;;;5051338;28;1889;-52
2023/03/09 00:45:01;;;;;;;;;;;;;;;;;;5051495;28;1817;-46
2023/03/09 00:47:28;;;;;;;;;;;;;;;;;;5052690;28;1800;-54
2023/03/09 00:49:56;;;;;;;;;;;;;;;;;;5051063;28;2079;-46
2023/03/09 00:52:23;;;;;;;;;;;;;;;;;;5052440;28;1959;-48
2023/03/09 00:54:53;;;;;;;;;;;;;;;;;;5052076;28;1777;-53
2023/03/09 00:57:21;;;;;;;;;;;;;;;;;;5052122;28;2063;-45
2023/03/09 00:59:48;;;;;;;;;;;;;;;;;;5050745;28;1928;-48
2023/03/09 01:02:15;;;;;;;;;;;;;;;;;;5052159;28;2008;-44
2023/03/09 01:04:43;;;;;;;;;;;;;;;;;;5052232;28;2096;-45
2023/03/09 01:07:10;;;;;;;;;;;;;;;;;;5052126;28;2092;-46
2023/03/09 01:09:38;;;;;;;;;;;;;;;;;;5051523;28;1911;-43
2023/03/09 01:12:06;;;;;;;;;;;;;;;;;;5034146;28;1867;-43
2023/03/09 01:14:33;;;;;;;;;;;;;;;;;;5052017;28;1979;-43
2023/03/09 01:17:00;;;;;;;;;;;;;;;;;;5052262;28;2000;-42
2023/03/09 01:19:28;;;;;;;;;;;;;;;;;;5051854;28;1968;-43
2023/03/09 01:21:55;;;;;;;;;;;;;;;;;;5051541;28;2154;-46
2023/03/09 01:24:22;;;;;;;;;;;;;;;;;;5051692;28;2062;-45
2023/03/09 01:26:50;;;;;;;;;;;;;;;;;;5051560;28;2046;-53
2023/03/09 01:29:17;;;;;;;;;;;;;;;;;;5050366;28;2006;-43
2023/03/09 01:31:44;;;;;;;;;;;;;;;;;;5051407;28;1940;-48
2023/03/09 01:34:13;;;;;;;;;;;;;;;;;;5051641;28;1923;-44
2023/03/09 01:36:41;;;;;;;;;;;;;;;;;;5051289;28;2267;-44
2023/03/09 01:39:08;;;;;;;;;;;;;;;;;;5051592;28;2123;-50
2023/03/09 01:41:36;;;;;;;;;;;;;;;;;;5051788;28;1790;-52
2023/03/09 01:44:03;;;;;;;;;;;;;;;;;;5050051;28;2712;-49
2023/03/09 01:46:30;;;;;;;;;;;;;;;;;;5051255;28;2045;-50
2023/03/09 01:49:05;;;;;;;;;;;;;;;;;;5051201;28;2006;-44
2023/03/09 01:51:56;;;;;;;;;;;;;;;;;;5050254;28;2121;-45
2023/03/09 01:54:45;;;;;;;;;;;;;;;;;;5013553;28;1402;-53
2023/03/09 01:57:19;;;;;;;;;;;;;;;;;;5049995;28;1834;-56
2023/03/09 01:59:49;;;;;;;;;;;;;;;;;;5049777;28;2399;-51
2023/03/09 02:02:18;;;;;;;;;;;;;;;;;;5049745;28;2017;-48
2023/03/09 02:04:47;;;;;;;;;;;;;;;;;;5050957;28;1972;-43
2023/03/09 02:07:18;;;;;;;;;;;;;;;;;;5033228;28;2118;-51
2023/03/09 02:09:52;;;;;;;;;;;;;;;;;;5029731;28;2284;-51
2023/03/09 02:12:21;;;;;;;;;;;;;;;;;;5013114;28;1872;-50
2023/03/09 02:14:48;;;;;;;;;;;;;;;;;;5031156;28;1901;-45
2023/03/09 02:17:16;;;;;;;;;;;;;;;;;;5013649;28;2005;-46
2023/03/09 02:19:46;;;;;;;;;;;;;;;;;;5031178;28;2004;-44
2023/03/09 02:22:14;;;;;;;;;;;;;;;;;;5029559;28;1759;-45
2023/03/09 02:24:55;;;;;;;;;;;;;;;;;;5021697;28;2031;-50
2023/03/09 02:27:25;;;;;;;;;;;;;;;;;;5050944;28;1943;-42
2023/03/09 02:29:53;;;;;;;;;;;;;;;;;;5050884;28;1883;-44
2023/03/09 02:32:21;;;;;;;;;;;;;;;;;;5050845;28;1690;-44
2023/03/09 02:34:48;;;;;;;;;;;;;;;;;;5050534;28;2048;-45
2023/03/09 02:37:29;;;;;;;;;;;;;;;;;;5032853;28;2129;-44
2023/03/09 02:40:04;;;;;;;;;;;;;;;;;;5032885;28;1970;-50
2023/03/09 02:42:32;;;;;;;;;;;;;;;;;;5050541;28;2014;-45
2023/03/09 02:44:59;;;;;;;;;;;;;;;;;;5032825;28;2090;-44
2023/03/09 02:47:28;;;;;;;;;;;;;;;;;;5032790;28;1880;-45
2023/03/09 02:49:58;;;;;;;;;;;;;;;;;;5032458;28;1981;-43
2023/03/09 02:52:26;;;;;;;;;;;;;;;;;;5032689;28;1939;-45
2023/03/09 02:54:53;;;;;;;;;;;;;;;;;;5032911;28;1963;-43
2023/03/09 02:57:21;;;;;;;;;;;;;;;;;;5032633;28;1821;-51
2023/03/09 02:59:49;;;;;;;;;;;;;;;;;;5050539;28;1549;-44
2023/03/09 03:02:16;;;;;;;;;;;;;;;;;;5032470;28;1531;-48
2023/03/09 03:04:44;;;;;;;;;;;;;;;;;;5051044;28;1923;-43
2023/03/09 03:07:12;;;;;;;;;;;;;;;;;;5036375;28;2057;-46
2023/03/09 03:09:39;;;;;;;;;;;;;;;;;;5022194;28;2389;-44
2023/03/09 03:12:07;;;;;;;;;;;;;;;;;;5034596;28;2012;-43
2023/03/09 03:14:34;;;;;;;;;;;;;;;;;;5034050;28;1970;-44
2023/03/09 03:17:03;;;;;;;;;;;;;;;;;;5016556;28;2143;-44
2023/03/09 03:19:32;;;;;;;;;;;;;;;;;;5016503;28;2100;-48
2023/03/09 03:22:00;;;;;;;;;;;;;;;;;;5016236;28;1846;-44
2023/03/09 03:24:29;;;;;;;;;;;;;;;;;;5016437;28;2127;-43
2023/03/09 03:26:56;;;;;;;;;;;;;;;;;;5033630;28;1837;-46
2023/03/09 03:29:24;;;;;;;;;;;;;;;;;;5030061;28;1989;-45
2023/03/09 03:31:52;;;;;;;;;;;;;;;;;;5036043;28;2133;-48
2023/03/09 03:34:22;;;;;;;;;;;;;;;;;;5035782;28;1640;-43
2023/03/09 03:36:50;;;;;;;;;;;;;;;;;;5053599;28;2148;-46
2023/03/09 03:39:18;;;;;;;;;;;;;;;;;;5035992;28;1970;-44
2023/03/09 03:41:48;;;;;;;;;;;;;;;;;;5035531;28;1850;-46
2023/03/09 03:44:18;;;;;;;;;;;;;;;;;;5035787;28;1931;-45
2023/03/09 03:46:45;;;;;;;;;;;;;;;;;;5035577;28;1822;-45
2023/03/09 03:49:12;;;;;;;;;;;;;;;;;;5053427;28;2009;-46
2023/03/09 03:51:40;;;;;;;;;;;;;;;;;;5053759;28;1546;-45
2023/03/09 03:54:07;;;;;;;;;;;;;;;;;;5052995;28;1922;-46
2023/03/09 03:56:35;;;;;;;;;;;;;;;;;;5053642;28;1917;-50
2023/03/09 03:59:07;;;;;;;;;;;;;;;;;;5052139;28;1999;-53
2023/03/09 04:01:35;;;;;;;;;;;;;;;;;;5053116;28;2284;-50
2023/03/09 04:04:06;;;;;;;;;;;;;;;;;;5035222;28;2365;-55
2023/03/09 04:06:37;;;;;;;;;;;;;;;;;;5035847;28;2149;-44
2023/03/09 04:09:05;;;;;;;;;;;;;;;;;;5025571;28;2329;-42
2023/03/09 04:11:34;;;;;;;;;;;;;;;;;;5033423;28;2086;-46
2023/03/09 04:14:02;;;;;;;;;;;;;;;;;;5015388;28;2105;-51
2023/03/09 04:16:29;;;;;;;;;;;;;;;;;;5030700;28;1770;-52
2023/03/09 04:18:57;;;;;;;;;;;;;;;;;;5015103;28;1928;-45
2023/03/09 04:21:25;;;;;;;;;;;;;;;;;;5015163;28;2206;-44
2023/03/09 04:23:52;;;;;;;;;;;;;;;;;;5031696;28;1518;-47
2023/03/09 04:26:20;;;;;;;;;;;;;;;;;;5041207;28;2028;-41
2023/03/09 04:28:59;;;;;;;;;;;;;;;;;;5052189;28;1693;-45
2023/03/09 04:31:27;;;;;;;;;;;;;;;;;;5050163;28;3086;-46
2023/03/09 04:33:54;;;;;;;;;;;;;;;;;;5050839;28;2047;-52
2023/03/09 04:36:22;;;;;;;;;;;;;;;;;;5051703;28;2167;-45
2023/03/09 04:38:50;;;;;;;;;;;;;;;;;;5049603;28;1420;-43
2023/03/09 04:41:19;;;;;;;;;;;;;;;;;;5051057;28;1796;-45
2023/03/09 04:43:53;;;;;;;;;;;;;;;;;;5031434;28;2702;-45
2023/03/09 04:46:20;;;;;;;;;;;;;;;;;;5042310;28;1826;-46
2023/03/09 04:48:51;;;;;;;;;;;;;;;;;;5035305;28;2142;-47
2023/03/09 04:51:19;;;;;;;;;;;;;;;;;;5037385;28;1912;-45
2023/03/09 04:53:50;;;;;;;;;;;;;;;;;;5069834;28;11170;-41
2023/03/09 04:56:19;;;;;;;;;;;;;;;;;;5059230;28;1920;-45
2023/03/09 04:58:51;;;;;;;;;;;;;;;;;;5054822;28;1875;-45
2023/03/09 05:01:22;;;;;;;;;;;;;;;;;;5079257;28;2120;-43
2023/03/09 05:03:51;;;;;;;;;;;;;;;;;;5063726;28;2087;-46
2023/03/09 05:06:18;;;;;;;;;;;;;;;;;;5080166;28;1285;-45
2023/03/09 05:08:45;;;;;;;;;;;;;;;;;;5062739;28;2200;-44
2023/03/09 05:11:13;;;;;;;;;;;;;;;;;;5079746;28;1911;-44
2023/03/09 05:13:43;;;;;;;;;;;;;;;;;;5070229;28;2295;-48
2023/03/09 05:16:14;;;;;;;;;;;;;;;;;;5084069;28;1870;-46
2023/03/09 05:18:47;;;;;;;;;;;;;;;;;;5060875;28;1891;-44
2023/03/09 05:21:15;;;;;;;;;;;;;;;;;;5053937;28;2266;-45
2023/03/09 05:23:45;;;;;;;;;;;;;;;;;;5063856;28;1913;-43
2023/03/09 05:26:13;;;;;;;;;;;;;;;;;;5081267;28;1921;-46
2023/03/09 05:28:42;;;;;;;;;;;;;;;;;;5070173;28;1953;-45
2023/03/09 05:31:11;;;;;;;;;;;;;;;;;;5060095;28;1979;-44
2023/03/09 05:33:40;;;;;;;;;;;;;;;;;;5073665;28;1999;-44
2023/03/09 05:36:15;;;;;;;;;;;;;;;;;;5071756;28;2418;-46
2023/03/09 05:38:42;;;;;;;;;;;;;;;;;;5053446;28;1949;-48
2023/03/09 05:41:10;;;;;;;;;;;;;;;;;;5069946;28;2001;-43
2023/03/09 05:43:41;;;;;;;;;;;;;;;;;;5053729;28;2001;-47
2023/03/09 05:46:09;;;;;;;;;;;;;;;;;;5057296;28;2198;-45
2023/03/09 05:48:37;;;;;;;;;;;;;;;;;;5091064;28;2108;-45
2023/03/09 05:51:05;;;;;;;;;;;;;;;;;;5072488;28;2076;-46
2023/03/09 05:53:32;;;;;;;;;;;;;;;;;;5073511;28;2132;-45
2023/03/09 05:56:02;;;;;;;;;;;;;;;;;;5063107;28;2177;-44
2023/03/09 05:58:29;;;;;;;;;;;;;;;;;;5071102;28;2124;-48
2023/03/09 06:00:57;;;;;;;;;;;;;;;;;;5053163;28;1940;-47
2023/03/09 06:03:25;;;;;;;;;;;;;;;;;;5069841;28;1808;-46
2023/03/09 06:06:00;;;;;;;;;;;;;;;;;;5069774;28;2001;-44
2023/03/09 06:08:29;;;;;;;;;;;;;;;;;;5071395;28;2709;-47
2023/03/09 06:10:59;;;;;;;;;;;;;;;;;;5064867;28;2179;-45
2023/03/09 06:13:27;;;;;;;;;;;;;;;;;;5052776;28;1892;-46
2023/03/09 06:15:57;;;;;;;;;;;;;;;;;;5067985;28;2075;-49
2023/03/09 06:18:26;;;;;;;;;;;;;;;;;;5069775;28;2211;-47
2023/03/09 06:20:59;;;;;;;;;;;;;;;;;;5052873;28;1986;-45
2023/03/09 06:23:27;;;;;;;;;;;;;;;;;;5055389;28;2038;-46
2023/03/09 06:25:54;;;;;;;;;;;;;;;;;;5052911;28;1971;-47
2023/03/09 06:28:22;;;;;;;;;;;;;;;;;;5054210;28;1935;-52
2023/03/09 06:30:49;;;;;;;;;;;;;;;;;;5068355;28;2105;-50
2023/03/09 06:33:17;;;;;;;;;;;;;;;;;;5060165;28;2092;-51
2023/03/09 06:35:50;;;;;;;;;;;;;;;;;;5051372;28;1483;-51
2023/03/09 06:38:19;;;;;;;;;;;;;;;;;;5057837;28;1813;-47
2023/03/09 06:40:48;;;;;;;;;;;;;;;;;;5084610;28;1866;-54
2023/03/09 06:43:16;;;;;;;;;;;;;;;;;;5088650;28;1860;-56
2023/03/09 06:45:46;;;;;;;;;;;;;;;;;;5076981;28;2016;-52
2023/03/09 06:48:13;;;;;;;;;;;;;;;;;;5089734;28;2131;-51
2023/03/09 06:50:41;;;;;;;;;;;;;;;;;;5062410;28;1991;-51
2023/03/09 06:53:10;;;;;;;;;;;;;;;;;;5076671;28;2040;-45
2023/03/09 06:55:42;;;;;;;;;;;;;;;;;;5076615;28;1953;-54
2023/03/09 06:58:10;;;;;;;;;;;;;;;;;;5072770;28;2124;-52
2023/03/09 07:00:40;;;;;;;;;;;;;;;;;;5056642;28;1989;-53
2023/03/09 07:03:14;;;;;;;;;;;;;;;;;;5060742;28;1982;-48
2023/03/09 07:05:44;;;;;;;;;;;;;;;;;;5057529;28;1973;-53
2023/03/09 07:08:12;;;;;;;;;;;;;;;;;;5074788;28;2419;-51
2023/03/09 07:10:39;;;;;;;;;;;;;;;;;;5078340;28;2157;-52
2023/03/09 07:13:11;;;;;;;;;;;;;;;;;;5071567;28;2011;-55
2023/03/09 07:15:38;;;;;;;;;;;;;;;;;;5073666;28;2050;-54
2023/03/09 07:18:05;;;;;;;;;;;;;;;;;;5073009;28;2132;-48
2023/03/09 07:20:33;;;;;;;;;;;;;;;;;;5087124;28;1933;-51
2023/03/09 07:23:00;;;;;;;;;;;;;;;;;;5094154;28;1700;-51
2023/03/09 07:25:27;;;;;;;;;;;;;;;;;;5080876;28;1961;-49
2023/03/09 07:27:55;;;;;;;;;;;;;;;;;;5073819;28;1797;-52
2023/03/09 07:30:22;;;;;;;;;;;;;;;;;;5073999;28;2147;-44
2023/03/09 07:32:49;;;;;;;;;;;;;;;;;;5073833;28;1857;-44
2023/03/09 07:35:17;;;;;;;;;;;;;;;;;;5086216;28;1949;-46
2023/03/09 07:37:46;;;;;;;;;;;;;;;;;;5073001;28;2165;-48
2023/03/09 07:40:14;;;;;;;;;;;;;;;;;;5079008;28;2065;-59
2023/03/09 07:42:42;;;;;;;;;;;;;;;;;;5086240;28;2013;-49
2023/03/09 07:45:31;;;;;;;;;;;;;;;;;;5055356;28;2123;-46
2023/03/09 07:47:58;;;;;;;;;;;;;;;;;;5073853;28;1977;-48
2023/03/09 07:50:26;;;;;;;;;;;;;;;;;;5073681;28;2063;-45
2023/03/09 07:52:53;;;;;;;;;;;;;;;;;;5073643;28;1849;-44
2023/03/09 07:55:23;;;;;;;;;;;;;;;;;;5073419;28;2021;-48
2023/03/09 07:57:50;;;;;;;;;;;;;;;;;;5074083;28;2086;-46
2023/03/09 08:00:22;;;;;;;;;;;;;;;;;;5073232;28;1997;-44
2023/03/09 08:02:51;;;;;;;;;;;;;;;;;;5073092;28;2029;-48
2023/03/09 08:05:18;;;;;;;;;;;;;;;;;;5081523;28;2084;-47
2023/03/09 08:07:46;;;;;;;;;;;;;;;;;;5093028;28;2160;-49
2023/03/09 08:10:14;;;;;;;;;;;;;;;;;;5080358;28;2459;-46
2023/03/09 08:12:42;;;;;;;;;;;;;;;;;;5075607;28;1724;-45
2023/03/09 08:15:09;;;;;;;;;;;;;;;;;;5072524;28;2024;-47
2023/03/09 08:17:37;;;;;;;;;;;;;;;;;;5073089;28;2131;-47
2023/03/09 08:20:11;;;;;;;;;;;;;;;;;;5072970;28;1884;-47
2023/03/09 08:22:38;;;;;;;;;;;;;;;;;;5092226;28;1895;-44
2023/03/09 08:25:07;;;;;;;;;;;;;;;;;;5092305;28;1964;-46
2023/03/09 08:27:39;;;;;;;;;;;;;;;;;;5073293;28;2189;-44
2023/03/09 08:30:07;;;;;;;;;;;;;;;;;;5072649;28;1843;-45
2023/03/09 08:32:34;;;;;;;;;;;;;;;;;;5085057;28;2123;-45
2023/03/09 08:35:01;;;;;;;;;;;;;;;;;;5075963;28;2104;-45
2023/03/09 08:37:28;;;;;;;;;;;;;;;;;;5072791;28;1824;-45
2023/03/09 08:39:56;;;;;;;;;;;;;;;;;;5088591;28;2090;-46
2023/03/09 08:42:23;;;;;;;;;;;;;;;;;;5092781;28;2021;-51
2023/03/09 08:44:50;;;;;;;;;;;;;;;;;;5081691;28;2093;-44
2023/03/09 08:47:17;;;;;;;;;;;;;;;;;;5091230;28;1922;-53
2023/03/09 08:49:46;;;;;;;;;;;;;;;;;;5087361;28;2075;-55
2023/03/09 08:52:13;;;;;;;;;;;;;;;;;;5072015;28;2068;-51
2023/03/09 08:54:41;;;;;;;;;;;;;;;;;;5061566;28;1890;-54
2023/03/09 08:57:11;;;;;;;;;;;;;;;;;;5056961;28;1889;-51
2023/03/09 08:59:39;;;;;;;;;;;;;;;;;;5073211;28;1957;-50
2023/03/09 09:02:06;;;;;;;;;;;;;;;;;;5071705;28;1998;-56
2023/03/09 09:04:34;;;;;;;;;;;;;;;;;;5071590;28;1883;-53
2023/03/09 09:07:01;;;;;;;;;;;;;;;;;;5085546;28;1820;-50
2023/03/09 09:09:28;;;;;;;;;;;;;;;;;;5079427;28;2075;-48
2023/03/09 09:11:55;;;;;;;;;;;;;;;;;;5072410;28;2060;-50
2023/03/09 09:14:22;;;;;;;;;;;;;;;;;;5076570;28;1950;-56
2023/03/09 09:16:50;;;;;;;;;;;;;;;;;;5091634;28;2046;-49
2023/03/09 09:19:18;;;;;;;;;;;;;;;;;;5075324;28;1810;-49
2023/03/09 09:21:48;;;;;;;;;;;;;;;;;;5071258;28;1802;-46
2023/03/09 09:24:15;;;;;;;;;;;;;;;;;;5087267;28;1967;-47
2023/03/09 09:26:42;;;;;;;;;;;;;;;;;;5092234;28;2101;-59
2023/03/09 09:29:10;;;;;;;;;;;;;;;;;;5072266;28;2025;-48
2023/03/09 09:31:38;;;;;;;;;;;;;;;;;;5071409;28;1999;-49
2023/03/09 09:34:08;;;;;;;;;;;;;;;;;;5062553;28;2698;-47
2023/03/09 09:36:38;;;;;;;;;;;;;;;;;;5071294;28;1906;-45
2023/03/09 09:39:06;;;;;;;;;;;;;;;;;;5091907;28;2073;-46
2023/03/09 09:41:41;;;;;;;;;;;;;;;;;;5091726;28;2169;-46
2023/03/09 09:44:14;;;;;;;;;;;;;;;;;;5070234;28;1908;-45
2023/03/09 09:46:44;;;;;;;;;;;;;;;;;;5071487;28;1778;-46
2023/03/09 09:49:20;;;;;;;;;;;;;;;;;;5071168;28;1880;-50
2023/03/09 09:51:48;;;;;;;;;;;;;;;;;;5071063;28;2070;-51
2023/03/09 09:54:24;;;;;;;;;;;;;;;;;;5071150;28;2164;-45
2023/03/09 09:56:54;;;;;;;;;;;;;;;;;;5071081;28;1917;-45
2023/03/09 09:59:29;;;;;;;;;;;;;;;;;;5071513;28;1914;-45
2023/03/09 10:02:00;;;;;;;;;;;;;;;;;;5071589;28;2112;-49
2023/03/09 10:04:33;;;;;;;;;;;;;;;;;;5089296;28;2236;-47
2023/03/09 10:07:03;;;;;;;;;;;;;;;;;;5091174;28;2141;-51
2023/03/09 10:09:32;;;;;;;;;;;;;;;;;;5083752;28;2209;-45
2023/03/09 10:12:06;;;;;;;;;;;;;;;;;;5071400;28;1924;-49
2023/03/09 10:14:39;;;;;;;;;;;;;;;;;;5071318;28;2136;-46
2023/03/09 10:17:12;;;;;;;;;;;;;;;;;;5071044;28;1727;-47
2023/03/09 10:19:40;;;;;;;;;;;;;;;;;;5077421;28;2466;-47
2023/03/09 10:22:14;;;;;;;;;;;;;;;;;;5073304;28;2031;-48
2023/03/09 10:24:41;;;;;;;;;;;;;;;;;;5091038;28;2071;-46
2023/03/09 10:27:20;;;;;;;;;;;;;;;;;;5091315;28;2151;-49
2023/03/09 10:30:01;;;;;;;;;;;;;;;;;;5090792;28;1929;-46
2023/03/09 10:32:40;;;;;;;;;;;;;;;;;;5091093;28;1931;-47
2023/03/09 10:35:23;;;;;;;;;;;;;;;;;;5085326;28;2454;-44
2023/03/09 10:37:51;;;;;;;;;;;;;;;;;;5077804;28;1692;-47
2023/03/09 10:40:20;;;;;;;;;;;;;;;;;;5070751;28;2119;-49
2023/03/09 10:42:47;;;;;;;;;;;;;;;;;;5083026;28;2102;-47
2023/03/09 10:45:17;;;;;;;;;;;;;;;;;;5090810;28;2071;-46
2023/03/09 10:47:47;;;;;;;;;;;;;;;;;;5090877;28;1785;-46
2023/03/09 10:50:15;;;;;;;;;;;;;;;;;;5078999;28;2180;-45
2023/03/09 10:52:51;;;;;;;;;;;;;;;;;;5070609;28;1956;-44
2023/03/09 10:55:30;;;;;;;;;;;;;;;;;;5070636;28;1894;-48
2023/03/09 10:58:06;;;;;;;;;;;;;;;;;;5078166;28;2081;-50
2023/03/09 11:00:34;;;;;;;;;;;;;;;;;;5090630;28;2086;-43
2023/03/09 11:03:01;;;;;;;;;;;;;;;;;;5084059;28;2144;-43
2023/03/09 11:05:30;;;;;;;;;;;;;;;;;;5070407;28;1951;-47
2023/03/09 11:07:58;;;;;;;;;;;;;;;;;;5071197;28;1942;-44
2023/03/09 11:10:27;;;;;;;;;;;;;;;;;;5090576;28;1958;-51
2023/03/09 11:12:55;;;;;;;;;;;;;;;;;;5090630;28;2240;-49
2023/03/09 11:15:25;;;;;;;;;;;;;;;;;;5088378;28;1870;-47
2023/03/09 11:17:52;;;;;;;;;;;;;;;;;;5076157;28;1924;-54
2023/03/09 11:20:26;;;;;;;;;;;;;;;;;;5079984;28;1877;-55
2023/03/09 11:22:59;;;;;;;;;;;;;;;;;;5090655;28;2037;-52
2023/03/09 11:25:42;;;;;;;;;;;;;;;;;;5076712;28;2145;-52
2023/03/09 11:28:12;;;;;;;;;;;;;;;;;;5074183;28;1734;-50
2023/03/09 11:30:39;;;;;;;;;;;;;;;;;;5074063;28;2115;-50
2023/03/09 11:33:11;;;;;;;;;;;;;;;;;;5079837;28;2368;-56
2023/03/09 11:35:39;;;;;;;;;;;;;;;;;;5083851;28;2502;-51
2023/03/09 11:38:11;;;;;;;;;;;;;;;;;;5073981;28;1655;-46
2023/03/09 11:40:40;;;;;;;;;;;;;;;;;;5081808;28;1955;-45
2023/03/09 11:43:11;;;;;;;;;;;;;;;;;;5094165;28;1939;-56
2023/03/09 11:45:41;;;;;;;;;;;;;;;;;;5085514;28;1945;-49
2023/03/09 11:48:12;;;;;;;;;;;;;;;;;;5073924;28;1928;-47
2023/03/09 11:50:42;;;;;;;;;;;;;;;;;;5081853;28;1943;-45
2023/03/09 11:53:18;;;;;;;;;;;;;;;;;;5093982;28;2023;-55
2023/03/09 11:55:47;;;;;;;;;;;;;;;;;;5084249;28;2158;-58
2023/03/09 11:58:23;;;;;;;;;;;;;;;;;;5073641;28;1804;-46
2023/03/09 12:00:55;;;;;;;;;;;;;;;;;;5092455;28;1917;-50
2023/03/09 12:03:24;;;;;;;;;;;;;;;;;;5093619;28;2240;-46
2023/03/09 12:05:57;;;;;;;;;;;;;;;;;;5092793;28;1999;-52
2023/03/09 12:08:28;;;;;;;;;;;;;;;;;;5089182;28;1612;-47
2023/03/09 12:11:34;;;;;;;;;;;;;;;;;;5073345;28;1854;-44
2023/03/09 12:14:13;;;;;;;;;;;;;;;;;;4991032;28;2105;-50
2023/03/09 12:16:42;;;;;;;;;;;;;;;;;;4992029;28;2010;-44
2023/03/09 12:19:09;;;;;;;;;;;;;;;;;;5038856;28;1420;-48
2023/03/09 12:22:09;;;;;;;;;;;;;;;;;;5073157;28;1760;-46
2023/03/09 12:24:41;;;;;;;;;;;;;;;;;;5045876;28;1789;-46
2023/03/09 12:27:14;;;;;;;;;;;;;;;;;;5093106;28;1754;-48
2023/03/09 12:29:46;;;;;;;;;;;;;;;;;;5092930;28;1940;-44
2023/03/09 12:32:25;;;;;;;;;;;;;;;;;;5085932;28;1911;-44
2023/03/09 12:34:54;;;;;;;;;;;;;;;;;;5088214;28;2578;-49
2023/03/09 12:37:27;;;;;;;;;;;;;;;;;;5091670;28;2022;-45
2023/03/09 12:40:05;;;;;;;;;;;;;;;;;;5090303;28;1735;-44
2023/03/09 12:42:37;;;;;;;;;;;;;;;;;;5072821;28;2007;-45
2023/03/09 12:45:30;;;;;;;;;;;;;;;;;;5080390;28;1989;-47
2023/03/09 12:48:01;;;;;;;;;;;;;;;;;;5090379;28;2297;-60
2023/03/09 12:50:31;;;;;;;;;;;;;;;;;;5083895;28;1900;-46
2023/03/09 12:53:04;;;;;;;;;;;;;;;;;;5072458;28;2037;-47
2023/03/09 12:55:37;;;;;;;;;;;;;;;;;;5091474;28;2025;-45
2023/03/09 12:58:22;;;;;;;;;;;;;;;;;;5081434;28;1943;-45
2023/03/09 13:01:00;;;;;;;;;;;;;;;;;;5072367;28;1997;-44
2023/03/09 13:03:34;;;;;;;;;;;;;;;;;;5081293;28;2044;-45
2023/03/09 13:06:05;;;;;;;;;;;;;;;;;;5078638;28;2058;-46
2023/03/09 13:08:37;;;;;;;;;;;;;;;;;;5077391;28;2047;-46
2023/03/09 13:11:28;;;;;;;;;;;;;;;;;;5071429;28;2150;-47
2023/03/09 13:13:56;;;;;;;;;;;;;;;;;;5072104;28;1923;-43
2023/03/09 13:16:26;;;;;;;;;;;;;;;;;;5091333;28;2222;-44
2023/03/09 13:19:12;;;;;;;;;;;;;;;;;;5073988;28;2048;-43
2023/03/09 13:21:41;;;;;;;;;;;;;;;;;;5071662;28;2036;-45
2023/03/09 13:24:12;;;;;;;;;;;;;;;;;;5071585;28;2109;-53
2023/03/09 13:26:41;;;;;;;;;;;;;;;;;;5071773;28;2079;-45
2023/03/09 13:29:09;;;;;;;;;;;;;;;;;;5071904;28;1987;-51
2023/03/09 13:31:37;;;;;;;;;;;;;;;;;;5090673;28;1982;-46
2023/03/09 13:34:05;;;;;;;;;;;;;;;;;;5091703;28;1985;-55
2023/03/09 13:36:32;;;;;;;;;;;;;;;;;;5082959;28;2198;-46
2023/03/09 13:39:05;;;;;;;;;;;;;;;;;;5083073;28;2182;-51
2023/03/09 13:41:32;;;;;;;;;;;;;;;;;;5072292;28;1807;-51
2023/03/09 13:43:59;;;;;;;;;;;;;;;;;;5091602;28;2078;-46
2023/03/09 13:46:33;;;;;;;;;;;;;;;;;;5071380;28;2183;-45
2023/03/09 13:49:10;;;;;;;;;;;;;;;;;;5071178;28;1936;-45
2023/03/09 13:51:41;;;;;;;;;;;;;;;;;;5071301;28;1894;-45
2023/03/09 13:54:29;;;;;;;;;;;;;;;;;;5090103;28;1861;-44
2023/03/09 13:56:57;;;;;;;;;;;;;;;;;;5089987;28;1821;-53
2023/03/09 13:59:25;;;;;;;;;;;;;;;;;;5091291;28;2036;-49
2023/03/09 14:01:52;;;;;;;;;;;;;;;;;;5090746;28;1992;-43
2023/03/09 14:04:19;;;;;;;;;;;;;;;;;;5071984;28;1874;-54
2023/03/09 14:06:47;;;;;;;;;;;;;;;;;;5070891;28;1975;-46
2023/03/09 14:09:36;;;;;;;;;;;;;;;;;;5071084;28;2025;-52
2023/03/09 14:12:04;;;;;;;;;;;;;;;;;;5073259;28;1980;-48
2023/03/09 14:14:33;;;;;;;;;;;;;;;;;;5088172;28;1811;-49
2023/03/09 14:17:02;;;;;;;;;;;;;;;;;;5070924;28;1924;-45
2023/03/09 14:19:30;;;;;;;;;;;;;;;;;;5073464;28;1979;-45
2023/03/09 14:21:58;;;;;;;;;;;;;;;;;;5091294;28;1846;-44
2023/03/09 14:24:26;;;;;;;;;;;;;;;;;;5088648;28;1949;-45
2023/03/09 14:26:53;;;;;;;;;;;;;;;;;;5070944;28;2100;-46
2023/03/09 14:29:26;;;;;;;;;;;;;;;;;;5071211;28;1823;-44
2023/03/09 14:32:12;;;;;;;;;;;;;;;;;;5070686;28;1906;-43
2023/03/09 14:34:39;;;;;;;;;;;;;;;;;;5075158;28;2053;-42
2023/03/09 14:37:15;;;;;;;;;;;;;;;;;;5083043;28;2486;-44
2023/03/09 14:39:43;;;;;;;;;;;;;;;;;;5074538;28;2031;-44
2023/03/09 14:42:25;;;;;;;;;;;;;;;;;;5070832;28;1812;-43
2023/03/09 14:45:06;;;;;;;;;;;;;;;;;;5070995;28;1940;-47
2023/03/09 14:47:34;;;;;;;;;;;;;;;;;;5070819;28;2044;-45
2023/03/09 14:50:02;;;;;;;;;;;;;;;;;;5070645;28;2027;-47
2023/03/09 14:52:30;;;;;;;;;;;;;;;;;;5090073;28;1908;-44
2023/03/09 14:54:58;;;;;;;;;;;;;;;;;;5090979;28;1893;-45
2023/03/09 14:57:26;;;;;;;;;;;;;;;;;;5091122;28;2047;-43
2023/03/09 14:59:53;;;;;;;;;;;;;;;;;;5091149;28;1795;-42
2023/03/09 15:02:21;;;;;;;;;;;;;;;;;;5094208;28;2103;-48
2023/03/09 15:04:49;;;;;;;;;;;;;;;;;;5094874;28;2007;-44
2023/03/09 15:07:17;;;;;;;;;;;;;;;;;;5094568;28;2076;-45
2023/03/09 15:09:47;;;;;;;;;;;;;;;;;;5091753;28;1803;-43
2023/03/09 15:12:20;;;;;;;;;;;;;;;;;;5094420;28;1990;-44
2023/03/09 15:14:48;;;;;;;;;;;;;;;;;;5094459;28;2338;-44
2023/03/09 15:17:18;;;;;;;;;;;;;;;;;;5094388;28;1972;-46
2023/03/09 15:19:45;;;;;;;;;;;;;;;;;;5094782;28;2165;-43
2023/03/09 15:22:14;;;;;;;;;;;;;;;;;;5094284;28;1968;-46
2023/03/09 15:24:42;;;;;;;;;;;;;;;;;;5076312;28;1966;-46
2023/03/09 15:27:09;;;;;;;;;;;;;;;;;;5094418;28;1940;-43
2023/03/09 15:29:37;;;;;;;;;;;;;;;;;;5093926;28;2016;-46
2023/03/09 15:32:07;;;;;;;;;;;;;;;;;;5092394;28;1936;-45
2023/03/09 15:34:38;;;;;;;;;;;;;;;;;;5092187;28;1470;-43
2023/03/09 15:37:05;;;;;;;;;;;;;;;;;;5092049;28;2070;-44
2023/03/09 15:39:32;;;;;;;;;;;;;;;;;;5082243;28;1969;-44
2023/03/09 15:42:00;;;;;;;;;;;;;;;;;;5072077;28;1938;-45
2023/03/09 15:44:27;;;;;;;;;;;;;;;;;;5072742;28;1794;-48
2023/03/09 15:46:58;;;;;;;;;;;;;;;;;;5073649;28;2166;-43
2023/03/09 15:49:26;;;;;;;;;;;;;;;;;;5074021;28;1918;-45
2023/03/09 15:51:53;;;;;;;;;;;;;;;;;;5073908;28;2067;-44
2023/03/09 15:54:20;;;;;;;;;;;;;;;;;;5073658;28;2019;-45
2023/03/09 15:56:48;;;;;;;;;;;;;;;;;;5073312;28;1900;-52
2023/03/09 15:59:15;;;;;;;;;;;;;;;;;;5073335;28;2007;-50
2023/03/09 16:01:42;;;;;;;;;;;;;;;;;;5073412;28;1990;-55
2023/03/09 16:04:13;;;;;;;;;;;;;;;;;;5055412;28;1983;-51
2023/03/09 16:06:41;;;;;;;;;;;;;;;;;;5073107;28;2007;-48
2023/03/09 16:09:08;;;;;;;;;;;;;;;;;;5083390;28;1766;-48
2023/03/09 16:11:37;;;;;;;;;;;;;;;;;;5093310;28;1931;-56
2023/03/09 16:14:05;;;;;;;;;;;;;;;;;;5093222;28;1979;-54
2023/03/09 16:16:32;;;;;;;;;;;;;;;;;;5087268;28;2791;-48
2023/03/09 16:18:59;;;;;;;;;;;;;;;;;;5084606;28;1475;-51
2023/03/09 16:21:27;;;;;;;;;;;;;;;;;;5083902;28;2150;-53
2023/03/09 16:23:55;;;;;;;;;;;;;;;;;;5084710;28;2388;-53
2023/03/09 16:26:22;;;;;;;;;;;;;;;;;;5080340;28;2070;-50
2023/03/09 16:28:49;;;;;;;;;;;;;;;;;;5066049;28;1818;-57
2023/03/09 16:31:18;;;;;;;;;;;;;;;;;;5086245;28;2149;-55
2023/03/09 16:33:45;;;;;;;;;;;;;;;;;;5086042;28;2068;-50
2023/03/09 16:36:13;;;;;;;;;;;;;;;;;;5083556;28;2065;-53
2023/03/09 16:38:41;;;;;;;;;;;;;;;;;;5084519;28;2015;-53
2023/03/09 16:41:09;;;;;;;;;;;;;;;;;;5078291;28;2039;-44
2023/03/09 16:43:36;;;;;;;;;;;;;;;;;;5072674;28;1832;-49
2023/03/09 16:46:04;;;;;;;;;;;;;;;;;;5079433;28;2372;-43
2023/03/09 16:48:31;;;;;;;;;;;;;;;;;;5092789;28;2111;-46
2023/03/09 16:51:00;;;;;;;;;;;;;;;;;;5092988;28;1870;-45
2023/03/09 16:53:28;;;;;;;;;;;;;;;;;;5076957;28;2221;-45
2023/03/09 16:55:57;;;;;;;;;;;;;;;;;;5072319;28;2010;-47
2023/03/09 16:58:24;;;;;;;;;;;;;;;;;;5072224;28;2042;-46
2023/03/09 17:00:51;;;;;;;;;;;;;;;;;;5072119;28;1794;-44
2023/03/09 17:03:19;;;;;;;;;;;;;;;;;;5072357;28;2119;-49
2023/03/09 17:05:47;;;;;;;;;;;;;;;;;;5054235;28;1946;-43
2023/03/09 17:08:15;;;;;;;;;;;;;;;;;;5074689;28;1956;-43
2023/03/09 17:10:44;;;;;;;;;;;;;;;;;;5072088;28;2002;-44
2023/03/09 17:13:11;;;;;;;;;;;;;;;;;;5071466;28;1970;-47
2023/03/09 17:15:38;;;;;;;;;;;;;;;;;;5092200;28;2163;-48
2023/03/09 17:18:06;;;;;;;;;;;;;;;;;;5090851;28;2947;-48
2023/03/09 17:20:33;;;;;;;;;;;;;;;;;;5070481;28;2115;-46